createdAt,value
2022-08-23T00:00:30.853Z,3.40
2022-08-23T00:03:00.147Z,3.33
2022-08-23T00:05:31.452Z,3.23
2022-08-23T00:08:01.263Z,3.40
2022-08-23T00:10:32.664Z,3.87
2022-08-23T00:13:01.663Z,4.40
2022-08-23T00:15:30.807Z,3.43
2022-08-23T00:18:00.721Z,4.50
2022-08-23T00:20:30.069Z,4.10
2022-08-23T00:22:58.913Z,3.27
2022-08-23T00:25:27.966Z,3.53
2022-08-23T00:27:58.273Z,3.97
2022-08-23T00:30:27.332Z,3.83
2022-08-23T00:33:16.729Z,3.67
2022-08-23T00:35:46.094Z,3.70
2022-08-23T00:38:32.351Z,4.00
2022-08-23T00:41:04.469Z,3.83
2022-08-23T00:43:56.543Z,3.30
2022-08-23T00:46:58.208Z,4.10
2022-08-23T00:49:28.451Z,4.00
2022-08-23T00:52:01.542Z,3.77
2022-08-23T00:54:32.587Z,3.80
2022-08-23T00:57:06.296Z,3.70
2022-08-23T00:59:36.782Z,4.20
2022-08-23T01:02:10.218Z,3.67
2022-08-23T01:04:42.484Z,3.70
2022-08-23T01:07:15.718Z,3.60
2022-08-23T01:09:47.017Z,3.90
2022-08-23T01:12:32.520Z,4.10
2022-08-23T01:15:07.957Z,3.67
2022-08-23T01:17:43.310Z,4.07
2022-08-23T01:20:15.164Z,4.10
2022-08-23T01:22:54.080Z,4.03
2022-08-23T01:25:25.920Z,4.20
2022-08-23T01:27:55.112Z,4.07
2022-08-23T01:30:27.391Z,3.97
2022-08-23T01:33:01.446Z,4.10
2022-08-23T01:35:39.716Z,3.93
2022-08-23T01:38:10.009Z,4.40
2022-08-23T01:40:43.278Z,4.10
2022-08-23T01:43:14.052Z,3.83
2022-08-23T01:45:44.273Z,4.13
2022-08-23T01:48:15.060Z,4.37
2022-08-23T01:50:44.124Z,3.50
2022-08-23T01:53:15.370Z,4.37
2022-08-23T01:55:50.645Z,4.40
2022-08-23T01:58:22.242Z,4.57
2022-08-23T02:00:51.180Z,3.80
2022-08-23T02:03:21.933Z,3.77
2022-08-23T02:08:42.475Z,4.43
2022-08-23T02:11:15.309Z,4.00
2022-08-23T02:13:48.292Z,4.50
2022-08-23T02:16:25.325Z,3.57
2022-08-23T02:18:54.464Z,4.53
2022-08-23T02:21:23.922Z,4.03
2022-08-23T02:23:53.186Z,3.90
2022-08-23T02:26:31.240Z,4.00
2022-08-23T02:29:00.727Z,4.00
2022-08-23T02:31:29.667Z,4.00
2022-08-23T02:33:59.384Z,6.33
2022-08-23T02:36:30.781Z,4.20
2022-08-23T02:39:00.664Z,4.27
2022-08-23T02:41:31.709Z,4.60
2022-08-23T02:44:01.295Z,4.13
2022-08-23T02:46:31.251Z,4.63
2022-08-23T02:49:00.111Z,4.47
2022-08-23T02:51:29.045Z,4.73
2022-08-23T02:53:58.456Z,4.40
2022-08-23T02:56:31.031Z,4.57
2022-08-23T02:59:00.262Z,4.47
2022-08-23T03:01:30.836Z,4.60
2022-08-23T03:04:11.112Z,4.93
2022-08-23T03:06:40.947Z,4.30
2022-08-23T03:09:11.358Z,4.53
2022-08-23T03:11:46.105Z,4.20
2022-08-23T03:14:15.664Z,4.30
2022-08-23T03:16:45.525Z,5.13
2022-08-23T03:19:14.361Z,4.40
2022-08-23T03:21:44.040Z,4.73
2022-08-23T03:24:14.348Z,5.03
2022-08-23T03:26:46.821Z,4.53
2022-08-23T03:29:19.662Z,4.17
2022-08-23T03:32:01.607Z,4.40
2022-08-23T03:34:33.862Z,4.40
2022-08-23T03:37:03.134Z,3.60
2022-08-23T03:39:32.566Z,4.53
2022-08-23T03:42:03.863Z,4.97
2022-08-23T03:44:35.666Z,4.57
2022-08-23T03:47:06.203Z,4.77
2022-08-23T03:49:35.609Z,4.13
2022-08-23T03:52:06.021Z,3.70
2022-08-23T03:54:35.065Z,4.13
2022-08-23T03:57:09.592Z,3.97
2022-08-23T03:59:40.753Z,4.87
2022-08-23T04:02:12.446Z,4.77
2022-08-23T04:04:41.831Z,5.20
2022-08-23T04:07:35.763Z,6.50
2022-08-23T04:10:06.205Z,5.90
2022-08-23T04:12:40.096Z,5.83
2022-08-23T04:15:14.788Z,5.20
2022-08-23T04:17:44.123Z,4.97
2022-08-23T04:20:13.069Z,4.60
2022-08-23T04:22:54.732Z,4.70
2022-08-23T04:25:34.711Z,4.43
2022-08-23T04:28:07.653Z,3.67
2022-08-23T04:30:36.654Z,3.97
2022-08-23T04:33:09.893Z,3.97
2022-08-23T04:35:41.543Z,4.40
2022-08-23T04:38:18.302Z,3.83
2022-08-23T04:41:18.759Z,4.37
2022-08-23T04:43:50.743Z,3.83
2022-08-23T04:46:19.945Z,4.23
2022-08-23T04:48:49.628Z,3.80
2022-08-23T04:51:20.279Z,4.23
2022-08-23T04:53:50.094Z,4.17
2022-08-23T04:56:57.505Z,4.40
2022-08-23T04:59:28.058Z,4.20
2022-08-23T05:01:56.906Z,4.10
2022-08-23T05:04:25.760Z,4.37
2022-08-23T05:06:55.755Z,5.17
2022-08-23T05:09:25.426Z,5.00
2022-08-23T05:11:54.631Z,4.30
2022-08-23T05:14:27.312Z,5.70
2022-08-23T05:16:56.238Z,5.20
2022-08-23T05:19:25.740Z,5.50
2022-08-23T05:21:57.087Z,4.63
2022-08-23T05:24:41.306Z,5.90
2022-08-23T05:27:13.446Z,5.13
2022-08-23T05:29:44.306Z,4.50
2022-08-23T05:32:13.475Z,4.93
2022-08-23T05:34:42.414Z,6.03
2022-08-23T05:37:12.756Z,6.13
2022-08-23T05:39:43.847Z,6.33
2022-08-23T05:42:15.949Z,5.20
2022-08-23T05:44:47.342Z,6.27
2022-08-23T05:47:24.774Z,4.70
2022-08-23T05:50:23.230Z,5.60
2022-08-23T05:52:52.748Z,5.70
2022-08-23T05:55:34.694Z,7.00
2022-08-23T05:58:21.575Z,5.40
2022-08-23T06:00:55.542Z,5.17
2022-08-23T06:03:24.426Z,4.80
2022-08-23T06:05:59.023Z,4.40
2022-08-23T06:08:30.962Z,3.60
2022-08-23T06:11:06.360Z,3.87
2022-08-23T06:13:44.012Z,3.60
2022-08-23T06:16:16.067Z,3.90
2022-08-23T06:18:47.261Z,3.33
2022-08-23T06:21:36.110Z,4.53
2022-08-23T06:24:07.357Z,3.90
2022-08-23T06:26:44.890Z,3.73
2022-08-23T06:29:15.957Z,4.20
2022-08-23T06:31:51.302Z,4.03
2022-08-23T06:34:33.723Z,4.73
2022-08-23T06:37:27.533Z,4.53
2022-08-23T06:40:04.132Z,4.00
2022-08-23T06:42:52.771Z,3.00
2022-08-23T06:45:34.836Z,3.10
2022-08-23T06:48:09.977Z,2.80
2022-08-23T06:50:39.073Z,2.60
2022-08-23T06:53:39.019Z,3.03
2022-08-23T06:56:29.077Z,2.60
2022-08-23T06:59:09.892Z,2.80
2022-08-23T07:02:16.396Z,3.00
2022-08-23T07:05:02.243Z,3.10
2022-08-23T07:07:49.896Z,2.80
2022-08-23T07:10:19.613Z,3.13
2022-08-23T07:12:50.378Z,6.93
2022-08-23T07:15:22.195Z,3.13
2022-08-23T07:17:51.676Z,3.10
2022-08-23T07:20:22.540Z,3.20
2022-08-23T07:22:51.996Z,3.43
2022-08-23T07:25:21.305Z,3.27
2022-08-23T07:27:55.652Z,2.33
2022-08-23T07:30:25.111Z,2.97
2022-08-23T07:32:55.683Z,2.60
2022-08-23T07:35:28.524Z,2.50
2022-08-23T07:38:01.237Z,4.77
2022-08-23T07:40:39.106Z,3.43
2022-08-23T07:43:10.913Z,2.53
2022-08-23T07:45:43.441Z,2.57
2022-08-23T07:48:14.396Z,2.70
2022-08-23T07:51:15.630Z,3.80
2022-08-23T07:53:46.247Z,3.90
2022-08-23T07:56:21.019Z,3.10
2022-08-23T07:59:08.045Z,3.40
2022-08-23T08:01:44.677Z,3.80
2022-08-23T08:04:14.755Z,3.07
2022-08-23T08:07:10.459Z,3.70
2022-08-23T08:09:41.839Z,2.93
2022-08-23T08:12:11.247Z,4.20
2022-08-23T08:14:43.028Z,3.30
2022-08-23T08:17:13.897Z,3.23
2022-08-23T08:20:10.382Z,4.97
2022-08-23T08:23:00.536Z,4.30
2022-08-23T08:25:48.640Z,4.63
2022-08-23T08:28:20.285Z,4.10
2022-08-23T08:30:49.290Z,4.10
2022-08-23T08:33:18.191Z,4.43
2022-08-23T08:35:57.564Z,3.87
2022-08-23T08:38:30.983Z,4.13
2022-08-23T08:41:06.978Z,3.77
2022-08-23T08:43:47.372Z,3.93
2022-08-23T08:46:22.126Z,5.17
2022-08-23T08:48:54.944Z,4.63
2022-08-23T08:51:39.159Z,4.20
2022-08-23T08:54:12.292Z,4.00
2022-08-23T08:56:52.242Z,3.80
2022-08-23T08:59:28.566Z,4.23
2022-08-23T09:02:00.220Z,3.80
2022-08-23T09:04:37.422Z,6.40
2022-08-23T09:07:16.497Z,4.40
2022-08-23T09:10:04.026Z,4.70
2022-08-23T09:12:41.158Z,4.70
2022-08-23T09:15:22.742Z,4.23
2022-08-23T09:17:58.155Z,4.87
2022-08-23T09:20:33.091Z,4.00
2022-08-23T09:23:10.502Z,4.23
2022-08-23T09:25:42.897Z,4.60
2022-08-23T09:28:17.766Z,4.00
2022-08-23T09:30:54.186Z,4.83
2022-08-23T09:33:27.368Z,3.90
2022-08-23T09:36:14.746Z,6.17
2022-08-23T09:38:54.296Z,4.73
2022-08-23T09:41:30.332Z,5.17
2022-08-23T09:44:02.095Z,4.00
2022-08-23T09:46:35.893Z,4.03
2022-08-23T09:49:26.680Z,3.80
2022-08-23T09:52:03.065Z,4.73
2022-08-23T09:54:34.988Z,4.47
2022-08-23T09:57:10.641Z,4.40
2022-08-23T09:59:44.243Z,5.47
2022-08-23T10:02:27.110Z,4.17
2022-08-23T10:05:01.450Z,3.87
2022-08-23T10:07:38.417Z,4.30
2022-08-23T10:10:19.269Z,5.10
2022-08-23T10:12:50.485Z,4.20
2022-08-23T10:15:42.494Z,4.10
2022-08-23T10:18:19.008Z,6.70
2022-08-23T10:20:58.044Z,4.40
2022-08-23T10:23:39.620Z,4.47
2022-08-23T10:26:12.246Z,4.20
2022-08-23T10:29:07.872Z,4.80
2022-08-23T10:31:44.348Z,5.13
2022-08-23T10:34:25.739Z,4.57
2022-08-23T10:37:14.524Z,4.13
2022-08-23T10:39:58.193Z,5.00
2022-08-23T10:42:40.073Z,4.43
2022-08-23T10:45:18.459Z,4.67
2022-08-23T10:48:00.256Z,7.83
2022-08-23T10:50:42.890Z,5.03
2022-08-23T10:53:17.186Z,4.90
2022-08-23T10:56:04.003Z,4.57
2022-08-23T10:58:44.812Z,5.27
2022-08-23T11:01:24.084Z,5.53
2022-08-23T11:04:04.555Z,5.33
2022-08-23T11:06:51.157Z,4.53
2022-08-23T11:09:48.857Z,3.77
2022-08-23T11:12:25.205Z,3.57
2022-08-23T11:15:10.885Z,3.40
2022-08-23T11:17:57.923Z,3.13
2022-08-23T11:21:14.056Z,3.30
2022-08-23T11:23:55.608Z,3.20
2022-08-23T11:27:07.842Z,3.10
2022-08-23T11:29:45.265Z,3.63
2022-08-23T11:32:46.846Z,3.03
2022-08-23T11:35:43.225Z,3.93
2022-08-23T11:38:15.525Z,3.90
2022-08-23T11:41:01.308Z,4.10
2022-08-23T11:43:42.292Z,4.30
2022-08-23T11:46:27.191Z,3.20
2022-08-23T11:49:30.590Z,2.67
2022-08-23T11:52:09.093Z,2.90
2022-08-23T11:54:46.736Z,2.87
2022-08-23T11:57:45.290Z,3.60
2022-08-23T12:00:26.952Z,5.73
2022-08-23T12:03:06.211Z,3.27
2022-08-23T12:06:22.539Z,3.90
2022-08-23T12:08:56.482Z,3.73
2022-08-23T12:12:07.002Z,3.43
2022-08-23T12:14:49.731Z,3.80
2022-08-23T12:18:10.628Z,3.37
2022-08-23T12:20:40.883Z,3.17
2022-08-23T12:23:19.875Z,4.00
2022-08-23T12:26:00.812Z,3.07
2022-08-23T12:28:42.446Z,3.40
2022-08-23T12:31:30.239Z,2.83
2022-08-23T12:34:18.714Z,3.63
2022-08-23T12:36:55.637Z,3.70
2022-08-23T12:39:31.174Z,3.33
2022-08-23T12:42:07.716Z,3.30
2022-08-23T12:44:37.019Z,3.40
2022-08-23T12:47:14.977Z,3.27
2022-08-23T12:49:54.462Z,3.00
2022-08-23T12:52:27.135Z,3.10
2022-08-23T12:54:58.378Z,3.30
2022-08-23T12:57:38.574Z,2.97
2022-08-23T13:00:22.786Z,2.90
2022-08-23T13:02:58.458Z,2.80
2022-08-23T13:05:34.845Z,2.70
2022-08-23T13:08:07.605Z,3.23
2022-08-23T13:10:40.824Z,3.40
2022-08-23T13:13:12.429Z,3.00
2022-08-23T13:15:43.191Z,2.53
2022-08-23T13:18:12.379Z,3.90
2022-08-23T13:20:41.476Z,2.37
2022-08-23T13:23:10.908Z,3.10
2022-08-23T13:25:44.105Z,2.73
2022-08-23T13:28:24.592Z,2.47
2022-08-23T13:31:01.124Z,2.00
2022-08-23T13:33:31.126Z,2.70
2022-08-23T13:36:13.391Z,2.20
2022-08-23T13:39:08.215Z,2.53
2022-08-23T13:41:39.713Z,2.83
2022-08-23T13:44:11.450Z,4.30
2022-08-23T13:46:46.899Z,2.53
2022-08-23T13:49:19.588Z,2.80
2022-08-23T13:52:45.975Z,2.87
2022-08-23T13:54:54.964Z,2.40
2022-08-23T13:57:29.593Z,3.47
2022-08-23T14:00:00.182Z,2.30
2022-08-23T14:02:29.925Z,2.23
2022-08-23T14:04:59.100Z,2.90
2022-08-23T14:07:28.277Z,2.53
2022-08-23T14:09:57.726Z,2.63
2022-08-23T14:12:30.287Z,2.20
2022-08-23T14:15:00.318Z,2.80
2022-08-23T14:17:30.989Z,3.00
2022-08-23T14:22:51.415Z,2.30
2022-08-23T14:25:20.708Z,1.80
2022-08-23T14:27:51.540Z,2.10
2022-08-23T14:30:29.478Z,2.27
2022-08-23T14:32:59.366Z,2.17
2022-08-23T14:35:29.115Z,4.37
2022-08-23T14:38:05.479Z,2.60
2022-08-23T14:40:36.526Z,2.23
2022-08-23T14:43:13.306Z,2.10
2022-08-23T14:45:42.731Z,2.97
2022-08-23T14:48:11.687Z,2.37
2022-08-23T14:50:41.361Z,2.27
2022-08-23T14:53:10.895Z,2.20
2022-08-23T14:56:12.341Z,2.73
2022-08-23T14:58:44.976Z,2.47
2022-08-23T15:01:14.744Z,3.23
2022-08-23T15:03:44.000Z,2.50
2022-08-23T15:06:14.822Z,2.10
2022-08-23T15:08:44.655Z,2.40
2022-08-23T15:14:06.032Z,2.13
2022-08-23T15:16:35.758Z,2.07
2022-08-23T15:19:05.419Z,2.60
2022-08-23T15:21:34.930Z,1.97
2022-08-23T15:24:03.937Z,1.30
2022-08-23T15:26:33.186Z,1.70
2022-08-23T15:29:02.779Z,1.60
2022-08-23T15:31:33.468Z,1.70
2022-08-23T15:34:02.345Z,1.67
2022-08-23T15:36:32.821Z,1.70
2022-08-23T15:39:01.826Z,1.60
2022-08-23T15:41:30.738Z,1.90
2022-08-23T15:43:59.747Z,1.90
2022-08-23T15:46:28.810Z,1.60
2022-08-23T15:49:03.631Z,1.60
2022-08-23T15:51:33.130Z,1.87
2022-08-23T15:54:02.201Z,1.70
2022-08-23T15:56:35.840Z,1.80
2022-08-23T15:59:05.540Z,1.77
2022-08-23T16:01:35.761Z,1.97
2022-08-23T16:04:07.023Z,1.57
2022-08-23T16:06:37.293Z,1.50
2022-08-23T16:09:09.289Z,1.70
2022-08-23T16:11:41.975Z,1.77
2022-08-23T16:14:10.875Z,1.57
2022-08-23T16:16:41.273Z,1.70
2022-08-23T16:19:11.875Z,1.50
2022-08-23T16:21:41.177Z,1.50
2022-08-23T16:24:10.518Z,1.50
2022-08-23T16:26:46.592Z,1.30
2022-08-23T16:29:17.655Z,1.70
2022-08-23T16:31:47.174Z,1.67
2022-08-23T16:34:19.497Z,1.40
2022-08-23T16:36:53.186Z,2.07
2022-08-23T16:39:24.229Z,1.90
2022-08-23T16:41:53.116Z,1.57
2022-08-23T16:44:22.083Z,1.40
2022-08-23T16:46:52.328Z,1.43
2022-08-23T16:49:22.881Z,1.50
2022-08-23T16:51:52.771Z,2.80
2022-08-23T16:54:21.971Z,1.50
2022-08-23T16:56:51.062Z,1.20
2022-08-23T16:59:20.399Z,1.30
2022-08-23T17:01:54.774Z,1.30
2022-08-23T17:04:30.220Z,1.30
2022-08-23T17:07:00.770Z,1.20
2022-08-23T17:09:30.767Z,1.50
2022-08-23T17:11:59.875Z,1.40
2022-08-23T17:14:29.013Z,1.57
2022-08-23T17:16:57.950Z,1.40
2022-08-23T17:19:28.441Z,1.30
2022-08-23T17:21:57.444Z,1.87
2022-08-23T17:24:26.706Z,1.53
2022-08-23T17:26:55.963Z,1.23
2022-08-23T17:29:24.910Z,1.83
2022-08-23T17:31:53.896Z,1.80
2022-08-23T17:34:22.916Z,1.20
2022-08-23T17:36:55.508Z,1.60
2022-08-23T17:39:29.280Z,1.43
2022-08-23T17:41:59.159Z,1.50
2022-08-23T17:44:34.025Z,1.57
2022-08-23T17:47:07.134Z,1.40
2022-08-23T17:49:37.115Z,1.60
2022-08-23T17:52:09.133Z,1.30
2022-08-23T17:54:38.356Z,1.40
2022-08-23T17:57:10.152Z,1.40
2022-08-23T17:59:39.342Z,2.17
2022-08-23T18:02:08.787Z,1.80
2022-08-23T18:04:37.990Z,1.70
2022-08-23T18:07:08.613Z,1.30
2022-08-23T18:09:43.723Z,1.60
2022-08-23T18:12:17.926Z,1.60
2022-08-23T18:14:46.777Z,2.17
2022-08-23T18:17:15.851Z,1.77
2022-08-23T18:19:44.944Z,1.70
2022-08-23T18:22:15.168Z,2.87
2022-08-23T18:24:44.631Z,2.73
2022-08-23T18:27:30.827Z,1.77
2022-08-23T18:29:59.948Z,1.90
2022-08-23T18:32:28.906Z,1.90
2022-08-23T18:34:57.777Z,2.27
2022-08-23T18:37:28.052Z,2.40
2022-08-23T18:39:57.132Z,2.30
2022-08-23T18:42:26.349Z,4.10
2022-08-23T18:44:55.334Z,5.43
2022-08-23T18:47:24.350Z,2.60
2022-08-23T18:49:53.626Z,2.40
2022-08-23T18:52:22.617Z,2.77
2022-08-23T18:54:53.045Z,2.60
2022-08-23T18:57:21.851Z,2.00
2022-08-23T18:59:50.725Z,2.07
2022-08-23T19:02:19.745Z,3.17
2022-08-23T19:04:48.779Z,2.03
2022-08-23T19:07:17.801Z,2.50
2022-08-23T19:09:46.845Z,2.53
2022-08-23T19:12:17.741Z,2.80
2022-08-23T19:14:46.619Z,3.43
2022-08-23T19:17:15.560Z,2.50
2022-08-23T19:19:44.356Z,2.93
2022-08-23T19:22:14.761Z,5.50
2022-08-23T19:24:43.733Z,4.27
2022-08-23T19:27:15.164Z,5.20
2022-08-23T19:29:45.822Z,3.67
2022-08-23T19:32:14.923Z,3.97
2022-08-23T19:34:44.197Z,4.57
2022-08-23T19:37:20.561Z,3.60
2022-08-23T19:39:52.517Z,3.67
2022-08-23T19:42:21.823Z,3.07
2022-08-23T19:44:52.139Z,5.23
2022-08-23T19:47:23.657Z,3.30
2022-08-23T19:49:57.695Z,3.10
2022-08-23T19:52:26.805Z,2.40
2022-08-23T19:55:00.590Z,2.90
2022-08-23T19:57:35.684Z,3.70
2022-08-23T20:00:15.734Z,2.67
2022-08-23T20:02:48.313Z,2.50
2022-08-23T20:05:18.067Z,2.50
2022-08-23T20:07:47.675Z,3.87
2022-08-23T20:10:16.687Z,2.03
2022-08-23T20:12:45.631Z,2.13
2022-08-23T20:15:16.702Z,4.23
2022-08-23T20:17:46.365Z,2.10
2022-08-23T20:20:15.251Z,2.00
2022-08-23T20:23:02.054Z,3.10
2022-08-23T20:25:31.509Z,2.50
2022-08-23T20:28:05.175Z,2.40
2022-08-23T20:30:35.908Z,2.37
2022-08-23T20:33:05.619Z,2.93
2022-08-23T20:35:34.673Z,2.27
2022-08-23T20:38:04.560Z,2.30
2022-08-23T20:40:33.654Z,2.03
2022-08-23T20:43:02.819Z,2.20
2022-08-23T20:45:32.966Z,2.37
2022-08-23T20:48:03.473Z,2.23
2022-08-23T20:50:37.607Z,3.17
2022-08-23T20:53:11.673Z,3.10
2022-08-23T20:55:41.579Z,3.80
2022-08-23T20:58:10.590Z,2.97
2022-08-23T21:00:39.809Z,2.30
2022-08-23T21:03:10.203Z,3.07
2022-08-23T21:05:39.244Z,3.63
2022-08-23T21:08:08.661Z,2.03
2022-08-23T21:10:42.076Z,2.23
2022-08-23T21:13:14.210Z,2.10
2022-08-23T21:15:43.462Z,2.10
2022-08-23T21:18:13.735Z,2.17
2022-08-23T21:20:45.664Z,2.53
2022-08-23T21:23:14.729Z,2.00
2022-08-23T21:25:43.851Z,2.77
2022-08-23T21:28:13.689Z,2.23
2022-08-23T21:30:42.883Z,2.00
2022-08-23T21:33:13.223Z,2.40
2022-08-23T21:35:42.280Z,2.50
2022-08-23T21:38:11.678Z,2.97
2022-08-23T21:40:40.913Z,1.80
2022-08-23T21:43:09.851Z,2.40
2022-08-23T21:45:41.529Z,2.30
2022-08-23T21:48:10.666Z,2.93
2022-08-23T21:50:41.015Z,3.13
2022-08-23T21:53:09.856Z,2.47
2022-08-23T21:55:39.409Z,2.70
2022-08-23T21:58:09.278Z,2.50
2022-08-23T22:00:39.903Z,3.60
2022-08-23T22:03:09.294Z,2.13
2022-08-23T22:05:42.101Z,3.00
2022-08-23T22:08:14.523Z,2.27
2022-08-23T22:10:57.567Z,2.30
2022-08-23T22:13:28.282Z,2.50
2022-08-23T22:16:03.212Z,2.50
2022-08-23T22:18:32.751Z,2.20
2022-08-23T22:21:04.430Z,2.43
2022-08-23T22:23:34.425Z,2.80
2022-08-23T22:26:05.516Z,2.53
2022-08-23T22:28:46.180Z,2.70
2022-08-23T22:31:16.446Z,2.50
2022-08-23T22:33:46.381Z,2.33
2022-08-23T22:36:20.114Z,2.50
2022-08-23T22:38:49.867Z,3.13
2022-08-23T22:41:20.817Z,2.40
2022-08-23T22:43:49.723Z,2.50
2022-08-23T22:46:19.479Z,2.80
2022-08-23T22:48:49.429Z,2.57
2022-08-23T22:51:21.713Z,2.27
2022-08-23T22:53:53.105Z,2.37
2022-08-23T22:56:24.549Z,2.63
2022-08-23T22:58:55.708Z,2.20
2022-08-23T23:01:29.768Z,2.83
2022-08-23T23:04:01.239Z,2.70
2022-08-23T23:06:31.606Z,2.70
2022-08-23T23:09:01.498Z,2.40
2022-08-23T23:11:30.451Z,2.33
2022-08-23T23:13:59.627Z,2.00
2022-08-23T23:16:30.636Z,2.33
2022-08-23T23:19:17.124Z,2.27
2022-08-23T23:21:50.571Z,2.00
2022-08-23T23:24:22.636Z,2.33
2022-08-23T23:26:52.009Z,5.30
2022-08-23T23:29:22.179Z,1.97
2022-08-23T23:31:51.221Z,2.50
2022-08-23T23:34:20.368Z,2.00
2022-08-23T23:36:50.775Z,2.27
2022-08-23T23:39:19.769Z,2.37
2022-08-23T23:41:48.669Z,2.77
2022-08-23T23:44:22.456Z,2.50
2022-08-23T23:47:00.466Z,2.50
2022-08-23T23:49:32.261Z,2.73
2022-08-23T23:52:05.614Z,2.10
2022-08-23T23:54:36.722Z,2.80
2022-08-23T23:57:07.018Z,2.70
2022-08-23T23:59:36.576Z,2.57
